Time;durP1;ratioP1;P1;durP2;ratioP2;P2;SDS_P1;SDS_P2;PMS_P1;PMS_P2;Temp;Humidity;BMP_temperature;BMP_pressure;BME280_temperature;BME280_humidity;BME280_pressure;Samples;Min_cycle;Max_cycle;Signal;HPM_P1;HPM_P2
2021/03/16 00:00:01;;;;;;;10.37;9.43;;;4.40;99.90;;;;;;5011975;28;20432;-68
2021/03/16 00:02:26;;;;;;;9.13;8.53;;;4.50;99.90;;;;;;5011633;28;20206;-68
2021/03/16 00:04:52;;;;;;;11.17;10.03;;;4.40;99.90;;;;;;5011959;28;20412;-67
2021/03/16 00:07:20;;;;;;;10.10;9.00;;;4.40;99.90;;;;;;5011668;28;20225;-68
2021/03/16 00:09:46;;;;;;;9.60;7.70;;;4.40;99.90;;;;;;5011852;28;20164;-66
2021/03/16 00:12:11;;;;;;;13.50;7.70;;;4.30;99.90;;;;;;5011502;28;20489;-67
2021/03/16 00:14:37;;;;;;;8.70;7.93;;;4.40;99.90;;;;;;5011910;28;20400;-67
2021/03/16 00:17:03;;;;;;;19.00;8.33;;;4.40;99.90;;;;;;5011874;28;20169;-68
2021/03/16 00:19:29;;;;;;;11.13;7.20;;;4.50;99.90;;;;;;5011770;28;20687;-67
2021/03/16 00:21:55;;;;;;;13.87;9.27;;;4.50;99.90;;;;;;5011277;28;20467;-67
2021/03/16 00:24:21;;;;;;;10.83;8.67;;;4.40;99.90;;;;;;5011766;28;20166;-68
2021/03/16 00:26:46;;;;;;;9.40;8.20;;;4.40;99.90;;;;;;5011665;28;20471;-67
2021/03/16 00:29:12;;;;;;;9.90;8.90;;;4.40;99.90;;;;;;5011673;28;20172;-67
2021/03/16 00:31:38;;;;;;;10.13;7.03;;;4.40;99.90;;;;;;5011349;28;20232;-68
2021/03/16 00:34:03;;;;;;;9.63;7.20;;;4.30;99.90;;;;;;5014931;28;20161;-68
2021/03/16 00:36:29;;;;;;;8.53;7.73;;;4.40;99.90;;;;;;5015298;28;20174;-68
2021/03/16 00:38:54;;;;;;;11.33;8.97;;;4.40;99.90;;;;;;5015300;28;20162;-67
2021/03/16 00:41:20;;;;;;;9.00;8.00;;;4.30;99.90;;;;;;5015078;28;20174;-68
2021/03/16 00:43:47;;;;;;;9.60;7.83;;;4.40;99.90;;;;;;5015336;28;20452;-68
2021/03/16 00:46:12;;;;;;;15.40;7.70;;;4.30;99.90;;;;;;5015206;28;20260;-67
2021/03/16 00:48:38;;;;;;;9.20;8.30;;;4.30;99.90;;;;;;5015117;28;20500;-68
2021/03/16 00:51:04;;;;;;;16.40;7.10;;;4.40;99.90;;;;;;5014709;28;20204;-67
2021/03/16 00:53:29;;;;;;;14.73;9.10;;;4.30;99.90;;;;;;5014992;28;20588;-67
2021/03/16 00:55:55;;;;;;;12.33;8.27;;;4.30;99.90;;;;;;5015069;28;20837;-67
2021/03/16 00:58:28;;;;;;;9.13;8.23;;;4.40;99.90;;;;;;5014910;28;20249;-67
2021/03/16 01:00:55;;;;;;;14.97;10.07;;;4.40;99.90;;;;;;5014644;28;20173;-67
2021/03/16 01:03:20;;;;;;;12.13;8.50;;;4.40;99.90;;;;;;5014889;28;20820;-67
2021/03/16 01:05:50;;;;;;;10.50;7.20;;;4.40;99.90;;;;;;5014764;28;20412;-67
2021/03/16 01:08:16;;;;;;;10.50;8.20;;;4.50;99.90;;;;;;5014702;28;20205;-67
2021/03/16 01:10:42;;;;;;;12.83;7.90;;;4.40;99.90;;;;;;5014623;28;20420;-67
2021/03/16 01:13:08;;;;;;;9.23;7.97;;;4.40;99.90;;;;;;5014847;28;20437;-67
2021/03/16 01:15:33;;;;;;;10.20;7.80;;;4.40;99.90;;;;;;5014667;28;20411;-67
2021/03/16 01:17:59;;;;;;;13.03;8.87;;;4.40;99.90;;;;;;5014524;28;20177;-67
2021/03/16 01:20:26;;;;;;;22.03;8.77;;;4.30;99.90;;;;;;5014333;28;20181;-66
2021/03/16 01:22:52;;;;;;;15.00;9.30;;;4.30;99.90;;;;;;5014487;28;20428;-67
2021/03/16 01:25:18;;;;;;;18.17;8.70;;;4.30;99.90;;;;;;5014510;28;20427;-67
2021/03/16 01:27:43;;;;;;;9.60;7.93;;;4.30;99.90;;;;;;5014309;28;20462;-67
2021/03/16 01:30:10;;;;;;;13.33;9.00;;;4.30;99.90;;;;;;5014366;28;20196;-67
2021/03/16 01:32:36;;;;;;;12.30;8.10;;;4.30;99.90;;;;;;5013954;28;20433;-67
2021/03/16 01:35:04;;;;;;;8.73;7.73;;;4.30;99.90;;;;;;5014207;28;20507;-67
2021/03/16 01:37:30;;;;;;;11.77;8.40;;;4.30;99.90;;;;;;5014161;28;20435;-66
2021/03/16 01:39:56;;;;;;;9.60;8.60;;;4.30;99.90;;;;;;5014145;28;20893;-66
2021/03/16 01:42:22;;;;;;;7.43;6.80;;;4.40;99.90;;;;;;5013847;28;20431;-67
2021/03/16 01:44:48;;;;;;;17.57;10.50;;;4.30;99.90;;;;;;5014067;28;20423;-67
2021/03/16 01:47:16;;;;;;;10.37;9.43;;;4.40;99.90;;;;;;5013927;28;20451;-66
2021/03/16 01:49:42;;;;;;;12.10;7.97;;;4.30;99.90;;;;;;5013919;28;20169;-67
2021/03/16 01:52:09;;;;;;;8.93;8.13;;;4.30;99.90;;;;;;5013507;28;20454;-68
2021/03/16 01:54:36;;;;;;;9.90;8.47;;;4.30;99.90;;;;;;5013924;28;20494;-67
2021/03/16 01:57:03;;;;;;;15.03;8.30;;;4.30;99.90;;;;;;5013956;28;20412;-67
2021/03/16 01:59:30;;;;;;;10.60;7.73;;;4.30;99.90;;;;;;5013795;28;20421;-67
2021/03/16 02:01:55;;;;;;;13.10;8.77;;;4.30;99.90;;;;;;5013394;28;20436;-67
2021/03/16 02:04:22;;;;;;;14.23;8.13;;;4.30;99.90;;;;;;5013714;28;20414;-67
2021/03/16 02:07:03;;;;;;;9.03;8.17;;;4.30;99.90;;;;;;5013667;28;20189;-67
2021/03/16 02:09:32;;;;;;;14.93;9.90;;;4.40;99.90;;;;;;5013747;28;20825;-66
2021/03/16 02:12:01;;;;;;;10.03;7.80;;;4.30;99.90;;;;;;5013250;28;20862;-67
2021/03/16 02:14:42;;;;;;;9.20;8.30;;;4.40;99.90;;;;;;5013482;28;20409;-67
2021/03/16 02:17:10;;;;;;;11.03;7.63;;;4.30;99.90;;;;;;5013590;28;20412;-67
2021/03/16 02:19:53;;;;;;;15.30;7.60;;;4.30;99.90;;;;;;5013383;28;20903;-68
2021/03/16 02:22:21;;;;;;;11.27;8.50;;;4.30;99.90;;;;;;5013140;28;20440;-67
2021/03/16 02:24:58;;;;;;;15.60;11.07;;;4.30;99.90;;;;;;5013231;28;20423;-67
2021/03/16 02:27:27;;;;;;;10.67;9.07;;;4.30;99.90;;;;;;5013258;28;20546;-67
2021/03/16 02:29:57;;;;;;;8.57;7.83;;;4.30;99.90;;;;;;5013265;28;20408;-67
2021/03/16 02:32:26;;;;;;;13.37;8.47;;;4.20;99.90;;;;;;5013283;28;20416;-67
2021/03/16 02:34:55;;;;;;;8.40;7.70;;;4.20;99.90;;;;;;5013120;28;20497;-67
2021/03/16 02:37:22;;;;;;;12.20;8.50;;;4.10;99.90;;;;;;5013143;28;20435;-67
2021/03/16 02:39:50;;;;;;;16.70;9.90;;;4.20;99.90;;;;;;5013076;28;20456;-67
2021/03/16 02:42:18;;;;;;;21.07;10.30;;;4.20;99.90;;;;;;5012743;28;20428;-68
2021/03/16 02:44:45;;;;;;;9.77;8.07;;;4.20;99.90;;;;;;5012966;28;20412;-67
2021/03/16 02:47:11;;;;;;;13.10;7.70;;;4.30;99.90;;;;;;5012881;28;20455;-67
2021/03/16 02:49:40;;;;;;;21.60;9.00;;;4.20;99.90;;;;;;5012823;28;20869;-67
2021/03/16 02:52:06;;;;;;;10.90;8.50;;;4.20;99.90;;;;;;5012400;28;20452;-68
2021/03/16 02:54:33;;;;;;;12.97;7.60;;;4.10;99.90;;;;;;5012850;28;20411;-67
2021/03/16 02:57:00;;;;;;;15.73;7.80;;;4.10;99.90;;;;;;5012448;28;20408;-67
2021/03/16 02:59:28;;;;;;;11.47;8.07;;;4.20;99.90;;;;;;5012705;28;20452;-67
2021/03/16 03:01:55;;;;;;;11.47;8.93;;;4.20;99.90;;;;;;5012398;28;20863;-67
2021/03/16 03:04:22;;;;;;;8.33;6.70;;;4.20;99.90;;;;;;5012491;28;20781;-68
2021/03/16 03:06:50;;;;;;;15.27;10.67;;;4.20;99.90;;;;;;5012712;28;20467;-68
2021/03/16 03:09:16;;;;;;;9.57;8.47;;;4.20;99.90;;;;;;5012753;28;20480;-67
2021/03/16 03:11:41;;;;;;;13.87;8.57;;;4.10;99.90;;;;;;5012245;28;21012;-67
2021/03/16 03:14:09;;;;;;;9.30;7.80;;;4.20;99.90;;;;;;5012547;28;20503;-67
2021/03/16 03:16:34;;;;;;;11.40;8.27;;;4.20;99.90;;;;;;5012536;28;20211;-66
2021/03/16 03:19:00;;;;;;;12.30;7.27;;;4.20;99.90;;;;;;5012258;28;20436;-67
2021/03/16 03:22:00;;;;;;;9.23;7.57;;;4.20;99.90;;;;;;5012006;28;20169;-67
2021/03/16 03:24:33;;;;;;;9.40;8.50;;;4.20;99.90;;;;;;5010117;28;20468;-67
2021/03/16 03:27:07;;;;;;;16.53;8.30;;;4.10;99.90;;;;;;5012320;28;20856;-67
2021/03/16 03:29:33;;;;;;;12.30;7.80;;;4.20;99.90;;;;;;5012228;28;20503;-67
2021/03/16 03:32:00;;;;;;;12.27;9.50;;;4.10;99.90;;;;;;5011893;28;20855;-66
2021/03/16 03:34:27;;;;;;;11.40;10.30;;;4.10;99.90;;;;;;5012464;28;20454;-68
2021/03/16 03:36:57;;;;;;;25.23;13.13;;;3.90;99.90;;;;;;5012293;28;20404;-67
2021/03/16 03:39:24;;;;;;;12.93;10.60;;;4.00;99.90;;;;;;5012157;28;20408;-67
2021/03/16 03:41:54;;;;;;;14.47;9.87;;;4.00;99.90;;;;;;5011677;28;20582;-67
2021/03/16 03:44:24;;;;;;;19.30;10.87;;;4.10;99.90;;;;;;5012195;28;20457;-67
2021/03/16 03:46:51;;;;;;;14.47;11.80;;;3.90;99.90;;;;;;5012045;28;20455;-67
2021/03/16 03:49:19;;;;;;;12.70;8.30;;;3.90;99.90;;;;;;5012133;28;20542;-67
2021/03/16 03:51:47;;;;;;;16.43;8.20;;;3.90;99.90;;;;;;5011660;28;20448;-67
2021/03/16 03:54:15;;;;;;;12.90;8.70;;;3.90;99.90;;;;;;5012100;28;20408;-67
2021/03/16 03:56:41;;;;;;;12.83;9.53;;;3.90;99.90;;;;;;5011960;28;20408;-67
2021/03/16 03:59:07;;;;;;;10.33;9.33;;;3.90;99.90;;;;;;5012640;28;20404;-66
2021/03/16 04:01:35;;;;;;;13.03;7.73;;;3.90;99.90;;;;;;5026831;28;20927;-66
2021/03/16 04:04:02;;;;;;;15.30;8.90;;;3.90;99.90;;;;;;5012124;28;20503;-66
2021/03/16 04:06:29;;;;;;;17.50;8.83;;;3.90;99.90;;;;;;5012010;28;20494;-66
2021/03/16 04:08:55;;;;;;;9.83;8.93;;;3.90;99.90;;;;;;5030524;28;20934;-66
2021/03/16 04:11:24;;;;;;;15.57;9.00;;;4.00;99.90;;;;;;5015694;28;20400;-66
2021/03/16 04:13:50;;;;;;;10.50;9.47;;;4.00;99.90;;;;;;5015977;28;20443;-66
2021/03/16 04:16:17;;;;;;;22.50;10.93;;;4.00;99.90;;;;;;5016114;28;20408;-66
2021/03/16 04:18:44;;;;;;;17.90;10.23;;;4.00;99.90;;;;;;5015755;28;20416;-66
2021/03/16 04:21:10;;;;;;;10.60;9.60;;;4.00;99.90;;;;;;5015515;28;20416;-66
2021/03/16 04:23:36;;;;;;;15.50;8.90;;;4.00;99.90;;;;;;5015756;28;20464;-66
2021/03/16 04:26:02;;;;;;;10.30;7.87;;;3.90;99.90;;;;;;5015812;28;20503;-66
2021/03/16 04:28:28;;;;;;;13.30;10.57;;;3.90;99.90;;;;;;5015600;28;20467;-66
2021/03/16 04:30:53;;;;;;;16.73;12.50;;;3.90;99.90;;;;;;5015278;28;20588;-66
2021/03/16 04:33:19;;;;;;;11.67;10.67;;;3.90;99.90;;;;;;5015410;28;20189;-66
2021/03/16 04:35:46;;;;;;;10.77;9.17;;;4.00;99.90;;;;;;5015579;28;20173;-66
2021/03/16 04:38:12;;;;;;;11.30;8.17;;;4.10;99.90;;;;;;5015285;28;20416;-66
2021/03/16 04:40:39;;;;;;;11.03;8.90;;;4.10;99.90;;;;;;5015176;28;20412;-66
2021/03/16 04:43:06;;;;;;;10.50;7.20;;;4.10;99.90;;;;;;5015413;28;20967;-66
2021/03/16 04:45:31;;;;;;;9.27;7.07;;;4.00;99.90;;;;;;5015332;28;20549;-66
2021/03/16 04:47:57;;;;;;;9.30;6.00;;;3.90;99.90;;;;;;5015245;28;20555;-66
2021/03/16 04:50:23;;;;;;;17.53;6.50;;;3.90;99.90;;;;;;5015034;28;20173;-65
2021/03/16 04:52:50;;;;;;;10.10;6.70;;;3.90;99.90;;;;;;5015123;28;20304;-66
2021/03/16 04:55:16;;;;;;;6.87;6.13;;;3.90;99.90;;;;;;5015096;28;20920;-66
2021/03/16 04:57:41;;;;;;;8.87;6.07;;;3.80;99.90;;;;;;5015147;28;20412;-66
2021/03/16 05:00:07;;;;;;;8.03;6.60;;;3.80;99.90;;;;;;5014876;28;20177;-66
2021/03/16 05:02:33;;;;;;;6.90;5.57;;;3.90;99.90;;;;;;5014998;28;20700;-66
2021/03/16 05:04:59;;;;;;;7.97;6.30;;;3.80;99.90;;;;;;5015001;28;20408;-66
2021/03/16 05:07:24;;;;;;;9.10;6.00;;;3.80;99.90;;;;;;5014749;28;20275;-66
2021/03/16 05:09:50;;;;;;;8.93;6.17;;;3.80;99.90;;;;;;5014783;28;20169;-66
2021/03/16 05:12:15;;;;;;;12.47;8.70;;;3.80;99.90;;;;;;5014517;28;20193;-66
2021/03/16 05:14:41;;;;;;;11.77;7.93;;;3.90;99.90;;;;;;5014695;28;20176;-66
2021/03/16 05:17:06;;;;;;;10.73;7.80;;;3.90;99.90;;;;;;5015204;28;20177;-66
2021/03/16 05:19:32;;;;;;;15.10;8.30;;;3.90;99.90;;;;;;5014211;28;20553;-66
2021/03/16 05:21:58;;;;;;;11.23;6.93;;;3.90;99.90;;;;;;5014192;28;20225;-66
2021/03/16 05:24:23;;;;;;;12.27;7.10;;;3.90;99.90;;;;;;5014596;28;20688;-66
2021/03/16 05:26:49;;;;;;;13.90;7.87;;;3.90;99.90;;;;;;5014493;28;20208;-66
2021/03/16 05:29:14;;;;;;;12.20;8.03;;;3.90;99.90;;;;;;5014463;28;20520;-66
2021/03/16 05:31:40;;;;;;;11.77;7.40;;;4.00;99.90;;;;;;5014150;28;20189;-66
2021/03/16 05:34:06;;;;;;;10.60;7.50;;;4.00;99.90;;;;;;5014427;28;20256;-66
2021/03/16 05:36:31;;;;;;;9.30;8.40;;;3.90;99.90;;;;;;5014316;28;20637;-66
2021/03/16 05:38:57;;;;;;;8.70;7.83;;;3.90;99.90;;;;;;5014463;28;20284;-66
2021/03/16 05:41:23;;;;;;;9.50;6.70;;;3.90;99.90;;;;;;5013890;28;20169;-66
2021/03/16 05:43:49;;;;;;;12.17;8.83;;;4.00;99.90;;;;;;5014306;28;20174;-66
2021/03/16 05:46:15;;;;;;;11.37;6.90;;;4.00;99.90;;;;;;5014244;28;20499;-66
2021/03/16 05:48:44;;;;;;;9.13;8.00;;;4.00;99.90;;;;;;5014013;28;20466;-66
2021/03/16 05:51:12;;;;;;;10.47;7.73;;;4.00;99.90;;;;;;5013571;28;20454;-66
2021/03/16 05:53:37;;;;;;;16.80;8.17;;;4.00;99.90;;;;;;5014110;28;20421;-66
2021/03/16 05:56:04;;;;;;;16.90;7.90;;;4.00;99.90;;;;;;5014105;28;20431;-66
2021/03/16 05:58:30;;;;;;;8.30;6.83;;;3.90;99.90;;;;;;5013859;28;20180;-66
2021/03/16 06:00:56;;;;;;;9.60;6.70;;;3.80;99.90;;;;;;5013716;28;20440;-66
2021/03/16 06:03:22;;;;;;;13.90;7.63;;;3.90;99.90;;;;;;5014183;28;20459;-66
2021/03/16 06:05:50;;;;;;;12.33;7.80;;;3.90;99.90;;;;;;5013942;28;20177;-66
2021/03/16 06:08:16;;;;;;;11.37;7.50;;;3.90;99.90;;;;;;5013923;28;20284;-66
2021/03/16 06:10:44;;;;;;;11.50;7.97;;;3.90;99.90;;;;;;5013524;28;20492;-66
2021/03/16 06:13:14;;;;;;;11.20;8.07;;;4.00;99.90;;;;;;5013874;28;20601;-66
2021/03/16 06:15:42;;;;;;;10.73;7.40;;;4.00;99.90;;;;;;5013715;28;20400;-66
2021/03/16 06:18:10;;;;;;;11.33;7.43;;;4.00;99.90;;;;;;5013439;28;20821;-66
2021/03/16 06:20:37;;;;;;;11.40;7.63;;;4.00;99.90;;;;;;5013258;28;20584;-66
2021/03/16 06:23:07;;;;;;;8.33;7.07;;;4.00;99.90;;;;;;5013717;28;20458;-66
2021/03/16 06:25:41;;;;;;;10.40;7.03;;;4.00;99.90;;;;;;5013783;28;20978;-66
2021/03/16 06:28:10;;;;;;;10.43;8.50;;;4.10;99.90;;;;;;5013550;28;20492;-66
2021/03/16 06:30:37;;;;;;;13.60;7.10;;;4.10;99.90;;;;;;5012430;28;20995;-66
2021/03/16 06:33:03;;;;;;;11.57;7.20;;;4.00;99.90;;;;;;5013584;28;20507;-66
2021/03/16 06:35:28;;;;;;;14.40;7.33;;;4.10;99.90;;;;;;5013579;28;20462;-66
2021/03/16 06:38:11;;;;;;;14.70;7.57;;;4.00;99.90;;;;;;5013303;28;20440;-66
2021/03/16 06:40:36;;;;;;;12.53;8.53;;;4.00;99.90;;;;;;5028284;28;20176;-66
2021/03/16 06:43:10;;;;;;;15.77;7.97;;;4.00;99.90;;;;;;5013203;28;20507;-66
2021/03/16 06:45:39;;;;;;;9.53;7.47;;;4.10;99.90;;;;;;5013367;28;20205;-66
2021/03/16 06:48:18;;;;;;;11.80;7.93;;;4.10;99.90;;;;;;5012997;28;20998;-66
2021/03/16 06:50:44;;;;;;;11.70;8.07;;;4.10;99.90;;;;;;5013027;28;20896;-66
2021/03/16 06:53:34;;;;;;;10.90;6.83;;;4.00;99.90;;;;;;5028143;28;20514;-66
2021/03/16 06:55:59;;;;;;;20.27;7.50;;;4.00;99.90;;;;;;5012889;28;20420;-66
2021/03/16 06:58:30;;;;;;;14.47;7.20;;;4.10;99.90;;;;;;5013024;28;20408;-66
2021/03/16 07:01:08;;;;;;;19.20;11.10;;;4.10;99.90;;;;;;5013258;28;20176;-66
2021/03/16 07:03:35;;;;;;;13.33;9.60;;;4.20;99.90;;;;;;5012999;28;20432;-66
2021/03/16 07:06:16;;;;;;;7.07;6.23;;;4.10;99.90;;;;;;5013021;28;20400;-66
2021/03/16 07:08:42;;;;;;;16.00;7.60;;;4.20;99.90;;;;;;5013096;28;20470;-66
2021/03/16 07:11:13;;;;;;;13.13;8.13;;;4.20;99.90;;;;;;5012816;28;20592;-66
2021/03/16 07:13:40;;;;;;;8.93;6.73;;;4.20;99.90;;;;;;5012848;28;20424;-66
2021/03/16 07:16:06;;;;;;;5.70;5.30;;;4.30;99.90;;;;;;5013000;28;20400;-66
2021/03/16 07:18:52;;;;;;;6.47;5.87;;;4.20;99.90;;;;;;5012631;28;20427;-66
2021/03/16 07:21:26;;;;;;;7.20;6.30;;;4.30;99.90;;;;;;5012460;28;20412;-66
2021/03/16 07:23:55;;;;;;;8.37;7.10;;;4.40;99.90;;;;;;5012778;28;20780;-66
2021/03/16 07:26:23;;;;;;;7.40;6.30;;;4.50;99.90;;;;;;5012821;28;20408;-66
2021/03/16 07:28:50;;;;;;;6.63;5.50;;;4.50;99.90;;;;;;5012457;28;20455;-66
2021/03/16 07:31:15;;;;;;;13.40;6.27;;;4.50;99.90;;;;;;5012291;28;20491;-66
2021/03/16 07:33:41;;;;;;;10.00;6.70;;;4.50;99.90;;;;;;5012664;28;20964;-66
2021/03/16 07:36:08;;;;;;;8.70;6.27;;;4.50;99.90;;;;;;5012708;28;20165;-66
2021/03/16 07:38:37;;;;;;;7.00;6.20;;;4.50;99.90;;;;;;5012576;28;20404;-66
2021/03/16 07:41:03;;;;;;;8.70;6.33;;;4.40;99.90;;;;;;5012050;28;20908;-66
2021/03/16 07:43:39;;;;;;;6.10;5.60;;;4.40;99.90;;;;;;5012234;28;20905;-66
2021/03/16 07:46:18;;;;;;;7.77;5.53;;;4.50;99.90;;;;;;5012485;28;20412;-66
2021/03/16 07:48:46;;;;;;;7.53;6.83;;;4.50;99.90;;;;;;5012363;28;20451;-66
2021/03/16 07:51:17;;;;;;;9.97;6.20;;;4.50;99.90;;;;;;5011991;28;20483;-66
2021/03/16 07:53:57;;;;;;;7.20;6.00;;;4.60;99.90;;;;;;5012526;28;20775;-66
2021/03/16 07:56:26;;;;;;;9.50;7.30;;;4.70;99.90;;;;;;5012288;28;20765;-66
2021/03/16 07:58:51;;;;;;;10.80;6.83;;;4.80;99.90;;;;;;5012182;28;20904;-66
2021/03/16 08:01:17;;;;;;;8.80;6.10;;;4.80;99.90;;;;;;5012073;28;20419;-66
2021/03/16 08:03:43;;;;;;;7.93;6.27;;;4.70;99.90;;;;;;5012322;28;20813;-66
2021/03/16 08:06:23;;;;;;;7.37;6.03;;;4.60;99.90;;;;;;5012215;28;20173;-66
2021/03/16 08:08:49;;;;;;;10.70;5.77;;;4.70;99.90;;;;;;5012225;28;20263;-66
2021/03/16 08:11:16;;;;;;;7.90;5.87;;;4.60;99.90;;;;;;5011973;28;20408;-65
2021/03/16 08:13:56;;;;;;;10.40;6.20;;;4.60;99.90;;;;;;5012202;28;20420;-66
2021/03/16 08:16:34;;;;;;;5.73;5.30;;;4.60;99.90;;;;;;5012287;28;20438;-66
2021/03/16 08:19:13;;;;;;;8.23;6.53;;;4.60;99.90;;;;;;5011851;28;20461;-66
2021/03/16 08:21:44;;;;;;;8.43;5.93;;;4.70;99.90;;;;;;5011567;28;20424;-66
2021/03/16 08:24:13;;;;;;;7.33;5.90;;;4.90;99.90;;;;;;5011854;28;20415;-66
2021/03/16 08:26:52;;;;;;;5.63;4.80;;;4.90;99.90;;;;;;5011804;28;20452;-66
2021/03/16 08:29:28;;;;;;;10.07;4.60;;;4.90;99.90;;;;;;5012058;28;20442;-66
2021/03/16 08:31:56;;;;;;;7.07;5.20;;;4.90;99.90;;;;;;5011907;28;20420;-66
2021/03/16 08:34:23;;;;;;;9.53;6.63;;;4.90;99.90;;;;;;5011970;28;20399;-66
2021/03/16 08:36:49;;;;;;;7.43;5.97;;;4.90;99.90;;;;;;5011859;28;20415;-66
2021/03/16 08:39:22;;;;;;;6.43;5.70;;;5.00;99.90;;;;;;5011644;28;20408;-66
2021/03/16 08:42:06;;;;;;;6.53;5.73;;;5.20;99.90;;;;;;5011132;28;20421;-66
2021/03/16 08:44:33;;;;;;;6.70;6.10;;;5.30;99.90;;;;;;5011837;28;20456;-66
2021/03/16 08:47:19;;;;;;;6.27;5.67;;;5.30;99.90;;;;;;5011768;28;20471;-66
2021/03/16 08:49:47;;;;;;;7.33;6.73;;;5.40;99.90;;;;;;5011655;28;20454;-66
2021/03/16 08:52:22;;;;;;;10.63;7.50;;;5.40;99.90;;;;;;5011170;28;20475;-66
2021/03/16 08:54:49;;;;;;;8.73;7.30;;;5.40;99.90;;;;;;5014557;28;20410;-66
2021/03/16 08:57:19;;;;;;;10.33;7.50;;;5.50;99.90;;;;;;5015168;28;20415;-66
2021/03/16 08:59:54;;;;;;;7.73;6.83;;;5.50;99.90;;;;;;5015164;28;20466;-66
2021/03/16 09:02:27;;;;;;;6.13;5.53;;;5.60;99.90;;;;;;5014864;28;20427;-66
2021/03/16 09:04:53;;;;;;;8.53;5.57;;;5.50;99.90;;;;;;5015065;28;20412;-66
2021/03/16 09:07:23;;;;;;;12.20;6.67;;;5.60;99.90;;;;;;5014887;28;20448;-66
2021/03/16 09:09:49;;;;;;;14.07;9.67;;;5.60;99.90;;;;;;5015050;28;20582;-66
2021/03/16 09:12:28;;;;;;;8.13;6.97;;;5.70;99.90;;;;;;5014625;28;20442;-66
2021/03/16 09:14:54;;;;;;;8.27;7.50;;;5.70;99.90;;;;;;5014912;28;20161;-66
2021/03/16 09:17:20;;;;;;;15.90;14.33;;;5.60;99.90;;;;;;5014699;28;20412;-66
2021/03/16 09:19:46;;;;;;;9.90;6.33;;;5.70;99.90;;;;;;5014773;28;20408;-66
2021/03/16 09:22:14;;;;;;;10.40;7.43;;;5.70;99.90;;;;;;5014447;28;20494;-66
2021/03/16 09:24:45;;;;;;;10.47;9.43;;;5.80;99.90;;;;;;5014612;28;20169;-66
2021/03/16 09:27:10;;;;;;;7.20;6.50;;;5.80;99.90;;;;;;5014484;28;20534;-66
2021/03/16 09:29:38;;;;;;;7.13;6.30;;;5.90;99.90;;;;;;5014523;28;20496;-66
2021/03/16 09:32:13;;;;;;;14.60;6.47;;;6.00;99.90;;;;;;5014064;28;20185;-66
2021/03/16 09:34:43;;;;;;;8.77;6.10;;;6.00;99.90;;;;;;5014648;28;20756;-66
2021/03/16 09:37:16;;;;;;;11.57;6.53;;;6.10;99.90;;;;;;5014470;28;20416;-66
2021/03/16 09:40:00;;;;;;;6.97;5.33;;;6.10;99.90;;;;;;5014237;28;20419;-66
2021/03/16 09:42:38;;;;;;;6.47;5.30;;;6.10;99.90;;;;;;5013921;28;20453;-66
2021/03/16 09:45:13;;;;;;;11.87;5.10;;;6.10;99.90;;;;;;5014262;28;20404;-66
2021/03/16 09:47:40;;;;;;;4.33;4.03;;;6.00;99.90;;;;;;5014288;28;20459;-66
2021/03/16 09:50:08;;;;;;;5.33;3.87;;;5.90;99.90;;;;;;5014132;28;20463;-67
2021/03/16 09:52:34;;;;;;;4.90;3.93;;;5.60;99.90;;;;;;5013543;28;20468;-66
2021/03/16 09:55:00;;;;;;;7.20;3.60;;;5.50;99.90;;;;;;5013917;28;20833;-66
2021/03/16 09:57:32;;;;;;;3.30;2.80;;;5.40;99.90;;;;;;5014140;28;20165;-66
2021/03/16 09:59:58;;;;;;;3.10;2.80;;;5.50;99.90;;;;;;5014655;28;20408;-65
2021/03/16 10:02:31;;;;;;;4.77;3.90;;;5.50;99.90;;;;;;5013533;28;20520;-66
2021/03/16 10:05:09;;;;;;;5.87;3.53;;;5.70;99.90;;;;;;5012676;28;20436;-66
2021/03/16 10:07:36;;;;;;;7.80;3.90;;;5.90;99.90;;;;;;5013745;28;20460;-66
2021/03/16 10:10:11;;;;;;;3.80;3.50;;;6.10;99.90;;;;;;5013797;28;20825;-66
2021/03/16 10:12:37;;;;;;;3.50;3.20;;;6.30;99.90;;;;;;5013407;28;20415;-66
2021/03/16 10:15:05;;;;;;;4.27;3.80;;;6.50;99.90;;;;;;5013621;28;20401;-65
2021/03/16 10:17:32;;;;;;;5.23;4.70;;;6.90;99.90;;;;;;5013587;28;20483;-65
2021/03/16 10:20:00;;;;;;;6.83;5.87;;;7.10;99.90;;;;;;5013452;28;20412;-65
2021/03/16 10:22:28;;;;;;;7.33;5.80;;;7.40;99.90;;;;;;5013116;28;20954;-66
2021/03/16 10:24:59;;;;;;;7.73;6.60;;;7.80;99.90;;;;;;5013423;28;20419;-66
2021/03/16 10:27:26;;;;;;;7.50;6.80;;;8.30;99.90;;;;;;5013394;28;20447;-66
2021/03/16 10:29:52;;;;;;;8.43;7.00;;;8.30;99.90;;;;;;5013244;28;20916;-66
2021/03/16 10:32:18;;;;;;;8.50;7.73;;;8.20;99.90;;;;;;5012816;28;20417;-66
2021/03/16 10:34:43;;;;;;;6.47;5.90;;;8.10;99.90;;;;;;5013353;28;20663;-66
2021/03/16 10:37:17;;;;;;;6.13;5.53;;;7.90;99.90;;;;;;5013270;28;20171;-66
2021/03/16 10:39:42;;;;;;;8.23;5.67;;;7.80;99.90;;;;;;5013116;28;20719;-66
2021/03/16 10:42:08;;;;;;;7.63;6.17;;;7.60;99.90;;;;;;5013166;28;20424;-67
2021/03/16 10:44:33;;;;;;;6.87;6.17;;;7.60;99.90;;;;;;5013112;28;20540;-66
2021/03/16 10:46:59;;;;;;;14.00;6.60;;;7.60;99.90;;;;;;5012904;28;20202;-66
2021/03/16 10:49:24;;;;;;;9.13;5.70;;;7.60;99.90;;;;;;5013136;28;20170;-66
2021/03/16 10:51:50;;;;;;;12.27;6.77;;;7.70;99.90;;;;;;5012419;28;20200;-66
2021/03/16 10:54:16;;;;;;;6.83;5.47;;;7.70;99.90;;;;;;5012966;28;20174;-66
2021/03/16 10:56:42;;;;;;;12.30;7.33;;;7.70;99.90;;;;;;5013026;28;20200;-66
2021/03/16 10:59:08;;;;;;;11.93;7.13;;;7.80;99.90;;;;;;5012793;28;20301;-66
2021/03/16 11:01:33;;;;;;;10.97;7.10;;;7.60;99.90;;;;;;5012392;28;20433;-66
2021/03/16 11:03:59;;;;;;;7.67;6.47;;;7.50;99.90;;;;;;5012842;28;20166;-66
2021/03/16 11:06:25;;;;;;;8.30;6.67;;;7.40;99.90;;;;;;5012721;28;20531;-67
2021/03/16 11:08:50;;;;;;;7.03;6.43;;;7.10;99.90;;;;;;5012583;28;20239;-65
2021/03/16 11:11:16;;;;;;;9.63;6.20;;;6.90;99.90;;;;;;5012314;28;20179;-65
2021/03/16 11:13:41;;;;;;;9.00;7.00;;;6.90;99.90;;;;;;5012659;28;20275;-66
2021/03/16 11:16:07;;;;;;;6.90;6.30;;;6.90;99.90;;;;;;5012179;28;20162;-66
2021/03/16 11:18:32;;;;;;;8.20;7.20;;;6.80;99.90;;;;;;5012527;28;20210;-65
2021/03/16 11:20:58;;;;;;;11.87;6.40;;;6.90;99.90;;;;;;5012248;28;20240;-65
2021/03/16 11:23:24;;;;;;;9.23;5.90;;;6.90;99.90;;;;;;5012538;28;20668;-66
2021/03/16 11:25:49;;;;;;;8.93;7.03;;;7.00;99.90;;;;;;5012454;28;20176;-66
2021/03/16 11:28:15;;;;;;;8.20;6.47;;;7.00;99.90;;;;;;5012287;28;20199;-67
2021/03/16 11:30:40;;;;;;;9.23;6.13;;;7.00;99.90;;;;;;5011961;28;20172;-66
2021/03/16 11:33:06;;;;;;;8.53;6.90;;;7.10;99.90;;;;;;5012307;28;20202;-66
2021/03/16 11:35:32;;;;;;;7.60;6.73;;;7.10;99.90;;;;;;5012340;28;20171;-66
2021/03/16 11:37:58;;;;;;;8.23;6.30;;;7.10;99.90;;;;;;5012147;28;20215;-66
2021/03/16 11:40:23;;;;;;;7.23;6.30;;;7.20;99.90;;;;;;5012014;28;20432;-66
2021/03/16 11:42:49;;;;;;;7.97;7.10;;;7.20;99.90;;;;;;5012522;28;20609;-66
2021/03/16 11:45:14;;;;;;;7.87;7.23;;;7.30;99.90;;;;;;5012135;28;20171;-65
2021/03/16 11:47:40;;;;;;;6.30;5.53;;;7.20;99.90;;;;;;5027437;28;20208;-66
2021/03/16 11:50:06;;;;;;;9.30;5.60;;;7.00;99.90;;;;;;5012088;28;20164;-66
2021/03/16 11:52:32;;;;;;;7.53;5.50;;;6.90;99.90;;;;;;5011918;28;20197;-67
2021/03/16 11:54:57;;;;;;;9.80;5.07;;;6.80;99.90;;;;;;5012085;28;20407;-66
2021/03/16 11:57:23;;;;;;;4.30;4.00;;;6.70;99.90;;;;;;5012035;28;20167;-65
2021/03/16 11:59:49;;;;;;;5.80;5.30;;;6.60;99.90;;;;;;5011886;28;20167;-66
2021/03/16 12:02:16;;;;;;;4.90;4.50;;;6.50;99.90;;;;;;5011733;28;20216;-66
2021/03/16 12:04:42;;;;;;;5.50;3.50;;;6.50;99.90;;;;;;5012151;28;20421;-67
2021/03/16 12:07:07;;;;;;;7.80;4.90;;;6.40;99.90;;;;;;5011836;28;20453;-66
2021/03/16 12:09:33;;;;;;;5.07;4.50;;;6.40;99.90;;;;;;5011920;28;20167;-66
2021/03/16 12:11:58;;;;;;;7.73;4.93;;;6.40;99.90;;;;;;5011562;28;20568;-66
2021/03/16 12:14:24;;;;;;;4.70;4.40;;;6.40;99.90;;;;;;5011866;28;20262;-67
2021/03/16 12:16:49;;;;;;;4.43;4.03;;;6.40;99.90;;;;;;5011876;28;20168;-66
2021/03/16 12:19:15;;;;;;;4.67;4.37;;;6.40;99.90;;;;;;5011804;28;20177;-66
2021/03/16 12:21:41;;;;;;;4.20;3.80;;;6.30;99.90;;;;;;5011436;28;20185;-66
2021/03/16 12:24:07;;;;;;;3.87;3.67;;;6.20;99.90;;;;;;5011829;28;20167;-67
2021/03/16 12:26:33;;;;;;;2.63;2.53;;;6.10;99.90;;;;;;5011748;28;20171;-66
2021/03/16 12:28:58;;;;;;;3.50;3.20;;;6.10;99.90;;;;;;5013221;28;20456;-66
2021/03/16 12:31:24;;;;;;;3.67;3.47;;;6.00;99.90;;;;;;5015263;28;20191;-65
2021/03/16 12:33:49;;;;;;;2.07;1.97;;;6.00;99.90;;;;;;5015573;28;20169;-66
2021/03/16 12:36:15;;;;;;;2.77;2.67;;;5.90;99.90;;;;;;5015436;28;20538;-66
2021/03/16 12:38:41;;;;;;;2.60;2.50;;;5.90;99.90;;;;;;5015426;28;20180;-68
2021/03/16 12:41:06;;;;;;;2.80;2.70;;;6.00;99.90;;;;;;5015151;28;20208;-66
2021/03/16 12:43:32;;;;;;;2.47;2.37;;;5.90;99.90;;;;;;5015268;28;20282;-66
2021/03/16 12:45:57;;;;;;;2.73;2.63;;;5.80;99.90;;;;;;5015317;28;20584;-66
2021/03/16 12:48:23;;;;;;;3.90;3.70;;;5.80;99.90;;;;;;5015175;28;20232;-66
2021/03/16 12:50:49;;;;;;;4.67;4.27;;;6.00;99.90;;;;;;5014903;28;20166;-65
2021/03/16 12:53:14;;;;;;;6.57;5.97;;;6.00;99.90;;;;;;5015004;28;20214;-66